createdAt,value
2023-01-03T00:00:11.629Z,4.50
2023-01-03T00:02:38.250Z,5.00
2023-01-03T00:05:07.520Z,4.60
2023-01-03T00:07:34.466Z,4.60
2023-01-03T00:10:03.900Z,4.43
2023-01-03T00:12:32.135Z,4.55
2023-01-03T00:14:59.850Z,4.40
2023-01-03T00:17:29.553Z,4.40
2023-01-03T00:19:56.122Z,4.13
2023-01-03T00:22:22.689Z,4.32
2023-01-03T00:24:49.743Z,3.95
2023-01-03T00:27:16.499Z,3.80
2023-01-03T00:29:44.794Z,4.40
2023-01-03T00:32:11.616Z,4.03
2023-01-03T00:34:38.285Z,4.72
2023-01-03T00:37:04.912Z,5.03
2023-01-03T00:39:31.669Z,4.55
2023-01-03T00:41:58.119Z,4.53
2023-01-03T00:44:24.798Z,5.00
2023-01-03T00:46:53.452Z,4.57
2023-01-03T00:49:20.130Z,4.22
2023-01-03T00:51:46.942Z,4.18
2023-01-03T00:54:15.445Z,4.10
2023-01-03T00:56:45.007Z,3.60
2023-01-03T00:59:12.729Z,3.97
2023-01-03T01:01:47.699Z,3.75
2023-01-03T01:04:37.896Z,4.35
2023-01-03T01:07:04.626Z,4.60
2023-01-03T01:09:36.962Z,3.85
2023-01-03T01:12:05.151Z,4.90
2023-01-03T01:14:33.650Z,4.63
2023-01-03T01:17:09.649Z,4.28
2023-01-03T01:19:41.665Z,4.85
2023-01-03T01:24:35.024Z,4.57
2023-01-03T01:27:01.659Z,4.70
2023-01-03T01:29:28.205Z,5.38
2023-01-03T01:31:55.079Z,4.80
2023-01-03T01:34:21.895Z,5.20
2023-01-03T01:36:51.626Z,5.53
2023-01-03T01:39:24.011Z,5.00
2023-01-03T01:42:18.276Z,4.90
2023-01-03T01:44:46.124Z,5.03
2023-01-03T01:47:38.736Z,5.00
2023-01-03T01:50:29.626Z,4.70
2023-01-03T01:53:10.105Z,5.13
2023-01-03T01:56:08.009Z,4.78
2023-01-03T01:58:39.859Z,5.57
2023-01-03T02:01:11.077Z,5.15
2023-01-03T02:03:38.074Z,5.03
2023-01-03T02:06:08.339Z,5.20
2023-01-03T02:08:35.478Z,5.07
2023-01-03T02:11:20.511Z,4.97
2023-01-03T02:14:07.644Z,5.90
2023-01-03T02:16:48.263Z,5.60
2023-01-03T02:19:23.741Z,5.78
2023-01-03T02:22:15.228Z,6.28
2023-01-03T02:24:54.385Z,5.97
2023-01-03T02:27:39.590Z,6.47
2023-01-03T02:30:09.070Z,6.53
2023-01-03T02:32:54.350Z,6.43
2023-01-03T02:35:23.681Z,6.97
2023-01-03T02:37:59.405Z,6.70
2023-01-03T02:40:29.554Z,6.72
2023-01-03T02:43:17.436Z,7.70
2023-01-03T02:46:15.854Z,8.05
2023-01-03T02:48:50.889Z,8.80
2023-01-03T02:51:45.175Z,8.95
2023-01-03T02:54:18.592Z,8.82
2023-01-03T02:56:51.365Z,9.27
2023-01-03T02:59:24.504Z,9.68
2023-01-03T03:01:52.747Z,10.18
2023-01-03T03:04:20.333Z,10.50
2023-01-03T03:07:04.373Z,10.55
2023-01-03T03:09:31.062Z,9.63
2023-01-03T03:12:33.324Z,10.27
2023-01-03T03:14:59.990Z,10.00
2023-01-03T03:17:30.715Z,10.45
2023-01-03T03:20:16.382Z,9.85
2023-01-03T03:23:27.597Z,10.25
2023-01-03T03:26:07.627Z,10.18
2023-01-03T03:28:38.771Z,10.48
2023-01-03T03:31:14.437Z,11.13
2023-01-03T03:34:07.533Z,10.43
2023-01-03T03:36:58.740Z,10.75
2023-01-03T03:39:46.785Z,10.25
2023-01-03T03:42:52.671Z,10.20
2023-01-03T03:45:46.340Z,9.80
2023-01-03T03:48:25.069Z,9.98
2023-01-03T03:51:00.472Z,8.57
2023-01-03T03:53:32.898Z,9.70
2023-01-03T03:56:08.754Z,9.05
2023-01-03T03:58:49.270Z,9.30
2023-01-03T04:01:19.415Z,9.43
2023-01-03T04:03:50.674Z,9.90
2023-01-03T04:06:25.676Z,9.23
2023-01-03T04:08:52.291Z,10.57
2023-01-03T04:11:18.917Z,10.77
2023-01-03T04:13:45.453Z,9.27
2023-01-03T04:16:12.308Z,9.52
2023-01-03T04:18:38.822Z,9.50
2023-01-03T04:21:05.428Z,10.30
2023-01-03T04:23:31.972Z,9.52
2023-01-03T04:25:58.461Z,9.60
2023-01-03T04:28:24.955Z,9.07
2023-01-03T04:30:51.446Z,9.55
2023-01-03T04:33:17.965Z,9.07
2023-01-03T04:35:44.469Z,9.25
2023-01-03T04:38:10.948Z,9.32
2023-01-03T04:40:41.266Z,9.30
2023-01-03T04:43:26.466Z,10.20
2023-01-03T04:45:53.077Z,10.20
2023-01-03T04:48:19.696Z,10.70
2023-01-03T04:50:53.664Z,10.77
2023-01-03T04:53:20.921Z,10.77
2023-01-03T04:55:49.735Z,10.40
2023-01-03T04:58:16.733Z,10.93
2023-01-03T05:00:43.296Z,10.18
2023-01-03T05:03:10.201Z,9.90
2023-01-03T05:05:37.925Z,8.52
2023-01-03T05:08:09.701Z,9.30
2023-01-03T05:10:38.771Z,8.70
2023-01-03T05:13:05.669Z,9.13
2023-01-03T05:15:36.173Z,9.07
2023-01-03T05:18:03.341Z,8.65
2023-01-03T05:20:48.318Z,9.20
2023-01-03T05:23:35.158Z,8.93
2023-01-03T05:26:06.080Z,7.35
2023-01-03T05:28:33.256Z,8.02
2023-01-03T05:30:59.848Z,7.57
2023-01-03T05:33:27.137Z,7.70
2023-01-03T05:35:53.690Z,6.80
2023-01-03T05:38:20.329Z,7.03
2023-01-03T05:40:49.485Z,6.88
2023-01-03T05:43:16.061Z,6.60
2023-01-03T05:45:42.929Z,6.95
2023-01-03T05:48:09.602Z,6.68
2023-01-03T05:50:36.098Z,6.68
2023-01-03T05:53:03.865Z,7.07
2023-01-03T05:55:30.369Z,7.22
2023-01-03T05:57:56.857Z,6.10
2023-01-03T06:00:23.388Z,6.50
2023-01-03T06:02:49.876Z,6.63
2023-01-03T06:05:16.450Z,6.93
2023-01-03T06:07:42.953Z,6.70
2023-01-03T06:10:09.967Z,7.03
2023-01-03T06:12:36.728Z,7.18
2023-01-03T06:15:03.672Z,7.63
2023-01-03T06:17:48.535Z,7.50
2023-01-03T06:20:15.153Z,7.78
2023-01-03T06:22:41.647Z,7.45
2023-01-03T06:25:08.588Z,7.70
2023-01-03T06:27:35.153Z,7.05
2023-01-03T06:30:01.680Z,6.43
2023-01-03T06:32:28.222Z,7.03
2023-01-03T06:34:54.686Z,7.38
2023-01-03T06:37:21.231Z,8.50
2023-01-03T06:39:47.722Z,7.68
2023-01-03T06:42:32.584Z,7.10
2023-01-03T06:45:37.380Z,7.68
2023-01-03T06:48:25.714Z,8.13
2023-01-03T06:51:10.770Z,7.38
2023-01-03T06:53:39.487Z,7.97
2023-01-03T06:56:07.105Z,7.68
2023-01-03T06:58:34.209Z,6.15
2023-01-03T07:01:03.896Z,6.05
2023-01-03T07:03:31.492Z,6.10
2023-01-03T07:05:58.052Z,5.25
2023-01-03T07:08:24.519Z,5.50
2023-01-03T07:10:51.016Z,5.45
2023-01-03T07:13:35.986Z,5.32
2023-01-03T07:16:02.747Z,5.30
2023-01-03T07:18:29.285Z,5.28
2023-01-03T07:20:55.736Z,5.80
2023-01-03T07:23:22.233Z,5.88
2023-01-03T07:25:48.812Z,5.78
2023-01-03T07:28:16.508Z,6.03
2023-01-03T07:30:45.772Z,6.47
2023-01-03T07:33:15.008Z,6.22
2023-01-03T07:35:41.901Z,5.75
2023-01-03T07:38:09.506Z,5.90
2023-01-03T07:40:36.017Z,6.38
2023-01-03T07:43:21.257Z,6.30
2023-01-03T07:45:47.939Z,8.18
2023-01-03T07:48:15.299Z,6.72
2023-01-03T07:50:42.533Z,7.60
2023-01-03T07:53:10.037Z,6.70
2023-01-03T07:55:37.543Z,9.68
2023-01-03T07:58:04.554Z,8.77
2023-01-03T08:00:31.331Z,8.18
2023-01-03T08:02:57.874Z,7.72
2023-01-03T08:05:25.685Z,7.28
2023-01-03T08:07:52.984Z,7.68
2023-01-03T08:10:39.594Z,8.10
2023-01-03T08:13:18.249Z,7.82
2023-01-03T08:15:47.335Z,7.75
2023-01-03T08:18:14.821Z,7.32
2023-01-03T08:20:42.354Z,7.15
2023-01-03T08:23:09.546Z,7.07
2023-01-03T08:25:37.013Z,7.25
2023-01-03T08:28:05.597Z,7.28
2023-01-03T08:30:32.624Z,6.55
2023-01-03T08:33:03.538Z,6.80
2023-01-03T08:38:02.513Z,6.38
2023-01-03T08:40:31.909Z,6.35
2023-01-03T08:43:04.417Z,6.35
2023-01-03T08:45:31.066Z,7.63
2023-01-03T08:48:01.393Z,6.13
2023-01-03T08:50:30.428Z,6.40
2023-01-03T08:52:58.037Z,6.13
2023-01-03T08:55:26.626Z,6.15
2023-01-03T08:57:53.275Z,5.93
2023-01-03T09:00:20.120Z,5.57
2023-01-03T09:02:46.834Z,5.50
2023-01-03T09:05:13.517Z,5.90
2023-01-03T09:07:40.050Z,5.20
2023-01-03T09:10:07.152Z,5.93
2023-01-03T09:12:33.679Z,5.13
2023-01-03T09:15:00.226Z,5.00
2023-01-03T09:17:26.718Z,4.85
2023-01-03T09:19:53.270Z,4.63
2023-01-03T09:22:19.706Z,4.78
2023-01-03T09:24:46.278Z,4.80
2023-01-03T09:27:12.755Z,4.45
2023-01-03T09:29:39.239Z,4.32
2023-01-03T09:32:05.925Z,4.55
2023-01-03T09:34:32.445Z,4.07
2023-01-03T09:36:58.989Z,4.13
2023-01-03T09:39:25.479Z,4.00
2023-01-03T09:42:11.929Z,4.25
2023-01-03T09:44:40.351Z,4.00
2023-01-03T09:47:06.978Z,4.10
2023-01-03T09:49:57.608Z,4.10
2023-01-03T09:52:45.941Z,4.40
2023-01-03T09:55:46.264Z,3.65
2023-01-03T09:58:33.848Z,3.85
2023-01-03T10:01:59.550Z,4.35
2023-01-03T10:05:04.467Z,3.92
2023-01-03T10:07:51.995Z,3.80
2023-01-03T10:10:37.438Z,4.03
2023-01-03T10:13:06.633Z,3.95
2023-01-03T10:15:42.100Z,3.75
2023-01-03T10:18:30.194Z,3.53
2023-01-03T10:21:06.069Z,3.92
2023-01-03T10:23:32.615Z,4.13
2023-01-03T10:25:59.567Z,3.95
2023-01-03T10:28:34.823Z,3.97
2023-01-03T10:31:18.692Z,3.97
2023-01-03T10:33:47.762Z,4.28
2023-01-03T10:36:19.631Z,3.60
2023-01-03T10:38:52.467Z,3.90
2023-01-03T10:41:41.479Z,3.80
2023-01-03T10:44:24.173Z,3.63
2023-01-03T10:46:53.920Z,3.33
2023-01-03T10:49:31.255Z,3.80
2023-01-03T10:52:12.387Z,3.20
2023-01-03T10:54:46.140Z,3.28
2023-01-03T10:57:38.177Z,3.70
2023-01-03T11:00:32.359Z,3.10
2023-01-03T11:03:23.375Z,3.13
2023-01-03T11:06:09.438Z,3.22
2023-01-03T11:08:42.593Z,2.70
2023-01-03T11:11:25.680Z,2.90
2023-01-03T11:13:52.272Z,2.60
2023-01-03T11:16:19.793Z,2.83
2023-01-03T11:19:06.401Z,2.70
2023-01-03T11:21:45.708Z,3.03
2023-01-03T11:24:15.195Z,2.97
2023-01-03T11:26:50.165Z,2.45
2023-01-03T11:29:32.613Z,2.35
2023-01-03T11:32:21.771Z,2.53
2023-01-03T11:35:22.835Z,2.35
2023-01-03T11:38:26.823Z,3.63
2023-01-03T11:41:12.087Z,2.47
2023-01-03T11:43:47.692Z,2.50
2023-01-03T11:46:17.187Z,2.65
2023-01-03T11:49:13.253Z,3.30
2023-01-03T11:51:55.252Z,3.55
2023-01-03T11:54:36.746Z,26.50
2023-01-03T11:57:17.637Z,6.72
2023-01-03T11:59:56.757Z,11.07
2023-01-03T12:02:49.142Z,33.45
2023-01-03T12:05:41.757Z,8.65
2023-01-03T12:08:26.340Z,12.00
2023-01-03T12:11:06.878Z,2.65
2023-01-03T12:13:45.693Z,3.55
2023-01-03T12:16:33.830Z,2.97
2023-01-03T12:19:16.336Z,10.65
2023-01-03T12:21:49.376Z,2.90
2023-01-03T12:24:35.913Z,3.75
2023-01-03T12:27:09.033Z,5.15
2023-01-03T12:29:56.439Z,2.60
2023-01-03T12:32:51.156Z,2.30
2023-01-03T12:35:34.900Z,6.80
2023-01-03T12:38:06.111Z,5.63
2023-01-03T12:40:46.474Z,3.10
2023-01-03T12:43:42.869Z,3.00
2023-01-03T12:46:15.726Z,4.93
2023-01-03T12:49:17.853Z,4.07
2023-01-03T12:51:44.470Z,2.65
2023-01-03T12:54:25.912Z,9.75
2023-01-03T12:57:13.908Z,4.15
2023-01-03T12:59:52.516Z,12.02
2023-01-03T13:02:29.508Z,4.80
2023-01-03T13:05:15.306Z,4.05
2023-01-03T13:07:49.718Z,2.90
2023-01-03T13:10:19.398Z,3.00
2023-01-03T13:12:52.711Z,2.55
2023-01-03T13:15:35.764Z,2.70
2023-01-03T13:18:20.902Z,2.97
2023-01-03T13:20:52.440Z,2.67
2023-01-03T13:23:57.481Z,4.03
2023-01-03T13:26:26.123Z,3.17
2023-01-03T13:29:13.281Z,2.15
2023-01-03T13:31:40.705Z,2.13
2023-01-03T13:34:13.811Z,2.03
2023-01-03T13:37:07.990Z,2.70
2023-01-03T13:39:44.558Z,2.40
2023-01-03T13:42:39.224Z,2.05
2023-01-03T13:45:11.538Z,2.15
2023-01-03T13:47:42.732Z,2.03
2023-01-03T13:50:35.776Z,2.13
2023-01-03T13:53:11.434Z,2.00
2023-01-03T13:55:40.028Z,2.25
2023-01-03T13:58:24.787Z,2.17
2023-01-03T14:00:54.245Z,1.90
2023-01-03T14:03:41.895Z,2.00
2023-01-03T14:06:15.818Z,2.13
2023-01-03T14:08:55.974Z,2.10
2023-01-03T14:11:44.145Z,2.30
2023-01-03T14:14:14.731Z,2.30
2023-01-03T14:16:50.173Z,2.70
2023-01-03T14:19:22.380Z,2.20
2023-01-03T14:21:55.433Z,2.53
2023-01-03T14:24:31.617Z,2.53
2023-01-03T14:27:17.342Z,2.38
2023-01-03T14:29:52.413Z,2.20
2023-01-03T14:32:34.718Z,2.40
2023-01-03T14:35:02.332Z,2.95
2023-01-03T14:37:28.916Z,3.90
2023-01-03T14:40:01.182Z,3.00
2023-01-03T14:42:28.259Z,3.00
2023-01-03T14:44:57.482Z,2.00
2023-01-03T14:47:31.901Z,2.40
2023-01-03T14:49:58.778Z,2.50
2023-01-03T14:52:30.681Z,1.80
2023-01-03T14:55:04.225Z,2.45
2023-01-03T14:57:36.292Z,1.92
2023-01-03T15:00:04.809Z,2.33
2023-01-03T15:02:38.084Z,2.13
2023-01-03T15:05:24.883Z,2.10
2023-01-03T15:07:51.676Z,1.77
2023-01-03T15:10:29.147Z,1.90
2023-01-03T15:13:00.752Z,2.97
2023-01-03T15:15:40.126Z,10.63
2023-01-03T15:18:09.814Z,18.80
2023-01-03T15:20:37.825Z,22.65
2023-01-03T15:23:05.324Z,10.70
2023-01-03T15:25:35.220Z,3.60
2023-01-03T15:28:23.158Z,2.40
2023-01-03T15:30:50.213Z,3.20
2023-01-03T15:33:33.096Z,3.20
2023-01-03T15:36:05.268Z,2.70
2023-01-03T15:38:37.750Z,5.18
2023-01-03T15:42:12.411Z,5.20
2023-01-03T15:44:38.770Z,4.60
2023-01-03T15:47:08.172Z,3.60
2023-01-03T15:49:46.002Z,3.20
2023-01-03T15:52:14.128Z,3.40
2023-01-03T15:54:42.517Z,3.20
2023-01-03T15:57:30.216Z,3.90
2023-01-03T16:00:00.517Z,3.50
2023-01-03T16:02:27.689Z,3.60
2023-01-03T16:04:54.432Z,3.10
2023-01-03T16:07:21.244Z,3.00
2023-01-03T16:09:48.123Z,2.92
2023-01-03T16:12:20.234Z,2.78
2023-01-03T16:14:50.346Z,3.13
2023-01-03T16:17:25.252Z,3.30
2023-01-03T16:19:53.143Z,3.83
2023-01-03T16:22:37.092Z,3.70
2023-01-03T16:25:05.544Z,3.90
2023-01-03T16:27:32.397Z,3.20
2023-01-03T16:29:59.038Z,2.90
2023-01-03T16:32:28.736Z,3.35
2023-01-03T16:35:04.672Z,3.45
2023-01-03T16:37:31.239Z,3.05
2023-01-03T16:39:58.580Z,5.45
2023-01-03T16:42:28.374Z,3.72
2023-01-03T16:44:55.516Z,3.38
2023-01-03T16:47:31.101Z,3.38
2023-01-03T16:50:06.127Z,3.13
2023-01-03T16:52:36.280Z,3.47
2023-01-03T16:55:13.635Z,3.47
2023-01-03T16:57:40.189Z,3.67
2023-01-03T17:00:31.191Z,2.80
2023-01-03T17:03:01.385Z,2.90
2023-01-03T17:05:32.106Z,2.90
2023-01-03T17:08:06.672Z,2.80
2023-01-03T17:10:36.976Z,2.53
2023-01-03T17:13:10.138Z,2.58
2023-01-03T17:15:38.903Z,2.80
2023-01-03T17:18:05.412Z,2.97
2023-01-03T17:20:31.938Z,2.50
2023-01-03T17:23:00.412Z,2.92
2023-01-03T17:25:27.152Z,3.40
2023-01-03T17:27:59.059Z,2.92
2023-01-03T17:30:27.885Z,2.88
2023-01-03T17:32:55.312Z,3.90
2023-01-03T17:35:22.310Z,3.17
2023-01-03T17:38:24.081Z,3.20
2023-01-03T17:40:36.131Z,3.25
2023-01-03T17:43:02.841Z,3.50
2023-01-03T17:45:48.415Z,3.60
2023-01-03T17:48:33.546Z,3.65
2023-01-03T17:51:01.543Z,3.30
2023-01-03T17:53:28.731Z,3.13
2023-01-03T17:55:55.273Z,3.42
2023-01-03T17:58:31.218Z,3.50
2023-01-03T18:00:57.809Z,4.45
2023-01-03T18:03:24.776Z,3.53
2023-01-03T18:05:51.880Z,3.30
2023-01-03T18:08:20.918Z,3.00
2023-01-03T18:10:48.113Z,3.58
2023-01-03T18:13:22.777Z,3.00
2023-01-03T18:15:50.438Z,3.03
2023-01-03T18:18:22.040Z,2.97
2023-01-03T18:20:49.067Z,3.05
2023-01-03T18:23:37.644Z,3.28
2023-01-03T18:26:11.964Z,3.40
2023-01-03T18:28:38.541Z,3.50
2023-01-03T18:31:07.069Z,4.10
2023-01-03T18:33:33.613Z,3.60
2023-01-03T18:36:01.183Z,4.97
2023-01-03T18:38:30.804Z,4.20
2023-01-03T18:41:04.400Z,3.65
2023-01-03T18:43:32.246Z,4.10
2023-01-03T18:45:58.823Z,3.42
2023-01-03T18:48:28.263Z,3.50
2023-01-03T18:50:58.892Z,3.65
2023-01-03T18:53:29.156Z,3.80
2023-01-03T18:55:56.095Z,3.10
2023-01-03T18:58:28.597Z,3.40
2023-01-03T19:00:55.141Z,3.75
2023-01-03T19:03:24.927Z,3.85
2023-01-03T19:05:55.177Z,3.35
2023-01-03T19:08:24.564Z,3.25
2023-01-03T19:10:51.995Z,3.28
2023-01-03T19:13:26.584Z,3.53
2023-01-03T19:15:53.989Z,2.92
2023-01-03T19:18:20.885Z,3.97
2023-01-03T19:20:48.085Z,3.50
2023-01-03T19:23:23.848Z,3.40
2023-01-03T19:25:50.771Z,3.47
2023-01-03T19:28:23.226Z,3.75
2023-01-03T19:30:50.242Z,4.10
2023-01-03T19:33:19.294Z,4.18
2023-01-03T19:35:46.148Z,3.63
2023-01-03T19:38:13.268Z,4.00
2023-01-03T19:40:42.437Z,3.60
2023-01-03T19:43:19.121Z,4.20
2023-01-03T19:45:45.643Z,3.42
2023-01-03T19:48:23.746Z,3.63
2023-01-03T19:50:51.308Z,4.55
2023-01-03T19:53:17.762Z,4.55
2023-01-03T19:55:49.930Z,4.57
2023-01-03T19:58:18.468Z,4.50
2023-01-03T20:00:47.681Z,4.85
2023-01-03T20:03:28.925Z,4.40
2023-01-03T20:05:56.578Z,3.95
2023-01-03T20:08:23.131Z,4.63
2023-01-03T20:10:52.077Z,4.50
2023-01-03T20:13:21.159Z,4.50
2023-01-03T20:15:49.573Z,4.43
2023-01-03T20:18:33.327Z,4.55
2023-01-03T20:21:22.879Z,4.32
2023-01-03T20:23:54.396Z,4.95
2023-01-03T20:26:24.966Z,4.88
2023-01-03T20:28:53.109Z,4.60
2023-01-03T20:31:20.805Z,4.55
2023-01-03T20:33:48.413Z,4.60
2023-01-03T20:36:23.332Z,5.05
2023-01-03T20:38:53.358Z,4.80
2023-01-03T20:41:20.160Z,4.82
2023-01-03T20:43:49.904Z,4.82
2023-01-03T20:46:19.972Z,5.32
2023-01-03T20:48:59.633Z,5.03
2023-01-03T20:51:26.548Z,4.65
2023-01-03T20:53:55.041Z,4.80
2023-01-03T20:56:23.173Z,4.88
2023-01-03T20:58:49.700Z,5.40
2023-01-03T21:01:16.257Z,5.15
2023-01-03T21:03:42.920Z,5.45
2023-01-03T21:06:23.365Z,4.75
2023-01-03T21:08:56.858Z,5.00
2023-01-03T21:11:35.853Z,4.97
2023-01-03T21:14:03.767Z,4.70
2023-01-03T21:16:42.218Z,4.55
2023-01-03T21:19:14.473Z,5.10
2023-01-03T21:21:43.530Z,4.78
2023-01-03T21:24:12.481Z,4.97
2023-01-03T21:26:39.267Z,5.32
2023-01-03T21:29:06.358Z,5.20
2023-01-03T21:31:34.429Z,5.50
2023-01-03T21:34:02.786Z,5.35
2023-01-03T21:36:34.831Z,5.00
2023-01-03T21:41:36.388Z,4.18
2023-01-03T21:44:04.242Z,4.30
2023-01-03T21:46:37.564Z,4.65
2023-01-03T21:49:04.097Z,3.95
2023-01-03T21:51:38.258Z,4.53
2023-01-03T21:54:09.461Z,4.22
2023-01-03T21:56:45.345Z,4.25
2023-01-03T21:59:16.572Z,4.50
2023-01-03T22:02:03.094Z,4.32
2023-01-03T22:04:30.336Z,4.18
2023-01-03T22:07:00.673Z,4.32
2023-01-03T22:09:47.259Z,3.67
2023-01-03T22:12:18.002Z,3.67
2023-01-03T22:14:45.420Z,4.00
2023-01-03T22:17:12.048Z,4.05
2023-01-03T22:19:38.523Z,4.13
2023-01-03T22:22:05.112Z,3.83
2023-01-03T22:24:38.673Z,3.47
2023-01-03T22:27:06.999Z,3.70
2023-01-03T22:29:35.265Z,3.15
2023-01-03T22:32:05.372Z,3.50
2023-01-03T22:34:31.922Z,3.40
2023-01-03T22:36:58.398Z,3.30
2023-01-03T22:39:25.101Z,3.72
2023-01-03T22:41:51.572Z,3.30
2023-01-03T22:44:20.872Z,3.35
2023-01-03T22:46:47.644Z,3.25
2023-01-03T22:49:17.518Z,3.72
2023-01-03T22:51:44.017Z,3.70
2023-01-03T22:54:10.597Z,3.60
2023-01-03T22:56:37.098Z,3.78
2023-01-03T22:59:03.565Z,3.80
2023-01-03T23:01:30.193Z,3.38
2023-01-03T23:04:03.328Z,3.78
2023-01-03T23:06:34.180Z,3.63
2023-01-03T23:09:04.497Z,3.60
2023-01-03T23:11:51.002Z,3.47
2023-01-03T23:14:20.302Z,3.25
2023-01-03T23:16:47.918Z,3.28
2023-01-03T23:19:16.327Z,3.63
2023-01-03T23:21:45.347Z,3.30
2023-01-03T23:24:18.437Z,3.70
2023-01-03T23:26:45.268Z,3.85
2023-01-03T23:29:16.288Z,3.50
2023-01-03T23:31:48.845Z,3.90
2023-01-03T23:34:18.900Z,3.53
2023-01-03T23:36:45.347Z,3.90
2023-01-03T23:39:17.185Z,3.53
2023-01-03T23:41:44.535Z,3.50
2023-01-03T23:44:11.378Z,3.45
2023-01-03T23:46:38.199Z,3.60
2023-01-03T23:49:04.969Z,3.20
2023-01-03T23:51:31.573Z,3.63
2023-01-03T23:53:58.032Z,3.20
2023-01-03T23:56:25.110Z,3.03
2023-01-03T23:58:52.757Z,2.90
